Time;durP1;ratioP1;P1;durP2;ratioP2;P2;SDS_P1;SDS_P2;PMS_P1;PMS_P2;Temp;Humidity;BMP_temperature;BMP_pressure;BME280_temperature;BME280_humidity;BME280_pressure;Samples;Min_cycle;Max_cycle;Signal;HPM_P1;HPM_P2
2022/07/07 00:01:33;;;;;;;21.43;5.97;;;;;;;25.94;66.37;100501.16;5046667;28;20049;-60
2022/07/07 00:04:04;;;;;;;56.00;7.13;;;;;;;26.02;66.82;100501.41;5045824;28;20063;-59
2022/07/07 00:06:34;;;;;;;13.13;4.60;;;;;;;26.05;66.32;100506.53;5042307;28;20053;-60
2022/07/07 00:09:07;;;;;;;52.57;8.07;;;;;;;26.02;66.74;100488.03;5034127;28;20041;-60
2022/07/07 00:11:38;;;;;;;19.07;5.40;;;;;;;25.90;66.24;100470.25;5034463;28;20068;-60
2022/07/07 00:14:09;;;;;;;21.73;5.17;;;;;;;26.21;67.29;100501.72;5034500;28;20322;-61
2022/07/07 00:16:40;;;;;;;15.23;5.40;;;;;;;26.18;65.90;100501.91;5034081;28;20081;-61
2022/07/07 00:19:11;;;;;;;23.40;5.60;;;;;;;26.12;66.81;100485.50;5033817;28;20088;-60
2022/07/07 00:21:41;;;;;;;85.57;9.90;;;;;;;26.04;66.81;100464.69;5033642;28;20329;-59
2022/07/07 00:24:14;;;;;;;12.63;4.77;;;;;;;26.18;66.66;100485.84;5034368;28;20115;-59
2022/07/07 00:26:44;;;;;;;30.63;6.13;;;;;;;26.29;66.69;100492.22;5034197;28;20096;-59
2022/07/07 00:29:15;;;;;;;13.80;5.20;;;;;;;26.24;65.80;100488.06;5034159;28;20075;-59
2022/07/07 00:31:46;;;;;;;73.43;9.20;;;;;;;26.18;66.05;100480.50;5034186;28;20413;-61
2022/07/07 00:34:16;;;;;;;11.90;5.43;;;;;;;26.18;65.88;100483.16;5034620;28;20080;-60
2022/07/07 00:36:47;;;;;;;20.47;5.33;;;;;;;26.16;66.49;100487.81;5033686;28;20107;-59
2022/07/07 00:39:19;;;;;;;20.07;5.13;;;;;;;26.23;67.00;100483.69;5034686;28;20230;-59
2022/07/07 00:41:50;;;;;;;21.70;5.80;;;;;;;26.28;65.94;100490.50;5034037;28;20091;-60
2022/07/07 00:44:22;;;;;;;23.03;5.37;;;;;;;26.36;66.49;100488.06;5034351;28;20213;-60
2022/07/07 00:46:54;;;;;;;52.20;6.43;;;;;;;26.34;66.20;100457.88;5034177;28;20049;-60
2022/07/07 00:49:25;;;;;;;16.57;5.17;;;;;;;26.56;65.41;100478.47;5034440;28;20115;-60
2022/07/07 00:51:56;;;;;;;24.57;5.03;;;;;;;26.68;66.04;100488.19;5034763;28;20128;-60
2022/07/07 00:54:28;;;;;;;20.50;5.03;;;;;;;26.75;65.60;100494.78;5034765;28;20057;-59
2022/07/07 00:56:59;;;;;;;17.57;4.63;;;;;;;26.71;64.61;100487.09;5035106;28;20316;-60
2022/07/07 00:59:50;;;;;;;22.70;4.77;;;;;;;26.75;65.93;100493.94;5034868;28;20056;-61
2022/07/07 01:02:20;;;;;;;26.10;5.13;;;;;;;26.84;65.45;100495.88;5035063;28;20250;-60
2022/07/07 01:04:52;;;;;;;16.57;4.57;;;;;;;26.95;65.46;100490.47;5034958;28;20061;-60
2022/07/07 01:07:22;;;;;;;16.23;5.17;;;;;;;26.95;65.50;100484.28;5034979;28;20049;-60
2022/07/07 01:09:57;;;;;;;11.57;4.80;;;;;;;26.96;65.26;100481.47;5034937;28;20061;-60
2022/07/07 01:12:33;;;;;;;14.47;4.50;;;;;;;26.97;64.78;100476.97;5036259;28;20281;-59
2022/07/07 01:15:05;;;;;;;15.30;5.17;;;;;;;26.90;64.77;100471.22;5038390;28;20321;-61
2022/07/07 01:17:36;;;;;;;23.40;5.60;;;;;;;26.89;64.35;100474.91;5038569;28;20111;-61
2022/07/07 01:20:09;;;;;;;20.50;5.37;;;;;;;26.97;65.30;100479.63;5038478;28;20053;-61
2022/07/07 01:22:40;;;;;;;39.50;7.47;;;;;;;26.97;65.60;100445.63;5038269;28;20140;-61
2022/07/07 01:25:12;;;;;;;17.67;5.03;;;;;;;27.02;64.15;100480.97;5038254;28;20054;-62
2022/07/07 01:27:43;;;;;;;21.30;5.50;;;;;;;27.05;64.98;100475.34;5038294;28;20058;-60
2022/07/07 01:30:14;;;;;;;22.30;5.27;;;;;;;27.15;64.86;100474.59;5038483;28;20061;-61
2022/07/07 01:32:44;;;;;;;20.33;5.33;;;;;;;27.19;64.10;100470.72;5038201;28;20252;-60
2022/07/07 01:35:15;;;;;;;11.60;5.07;;;;;;;27.27;64.62;100468.25;5038178;28;20079;-61
2022/07/07 01:37:46;;;;;;;14.03;5.13;;;;;;;27.25;63.40;100464.81;5038285;28;20052;-62
2022/07/07 01:40:18;;;;;;;26.53;6.47;;;;;;;27.30;65.04;100462.63;5038224;28;20053;-62
2022/07/07 01:42:48;;;;;;;25.77;5.70;;;;;;;27.36;64.23;100462.13;5037913;28;20057;-63
2022/07/07 01:45:19;;;;;;;14.30;5.07;;;;;;;27.41;64.54;100462.59;5038008;28;20065;-62
2022/07/07 01:47:50;;;;;;;23.70;5.30;;;;;;;27.43;63.74;100463.31;5037728;28;20087;-62
2022/07/07 01:50:21;;;;;;;28.67;6.90;;;;;;;27.47;64.07;100458.53;5037770;28;20339;-62
2022/07/07 01:52:51;;;;;;;175.17;16.80;;;;;;;27.51;64.16;100460.81;5037763;28;20084;-61
2022/07/07 01:55:23;;;;;;;24.30;5.80;;;;;;;27.61;64.58;100455.53;5037661;28;20083;-62
2022/07/07 01:57:54;;;;;;;34.83;5.87;;;;;;;27.68;63.57;100455.84;5037244;28;20591;-61
2022/07/07 02:00:25;;;;;;;29.00;6.07;;;;;;;27.62;63.73;100448.31;5038281;28;20061;-61
2022/07/07 02:02:55;;;;;;;16.30;4.57;;;;;;;27.69;63.45;100452.19;5037980;28;20108;-61
2022/07/07 02:05:26;;;;;;;13.73;4.50;;;;;;;27.65;63.61;100451.59;5037753;28;20317;-61
2022/07/07 02:07:57;;;;;;;22.47;5.27;;;;;;;27.69;63.40;100438.78;5037320;28;20112;-62
2022/07/07 02:13:16;;;;;;;12.47;4.40;;;;;;;27.85;63.61;100436.47;5037425;28;20057;-62
2022/07/07 02:15:47;;;;;;;18.33;4.23;;;;;;;27.99;64.27;100442.50;5037278;28;20307;-61
2022/07/07 02:18:18;;;;;;;16.43;4.37;;;;;;;27.99;62.96;100442.50;5037392;28;20041;-61
2022/07/07 02:20:48;;;;;;;10.80;4.50;;;;;;;28.00;63.44;100444.19;5037084;28;20341;-61
2022/07/07 02:23:19;;;;;;;10.93;3.77;;;;;;;28.04;62.66;100441.13;5036562;28;20079;-61
2022/07/07 02:25:51;;;;;;;12.87;4.30;;;;;;;27.80;61.28;100398.41;5037238;28;20510;-62
2022/07/07 02:28:23;;;;;;;16.50;4.00;;;;;;;27.95;61.65;100442.75;5036202;28;20076;-61
2022/07/07 02:30:53;;;;;;;6.90;3.67;;;;;;;27.60;62.17;100386.72;5035625;28;20233;-59
2022/07/07 02:33:25;;;;;;;124.70;11.33;;;;;;;27.98;62.51;100451.53;5036659;28;20045;-61
2022/07/07 02:35:57;;;;;;;9.47;3.90;;;;;;;27.69;62.02;100414.59;5037397;28;20310;-61
2022/07/07 02:38:28;;;;;;;11.03;4.07;;;;;;;27.74;62.27;100433.84;5037004;28;20053;-62
2022/07/07 02:41:00;;;;;;;11.87;4.43;;;;;;;27.70;61.92;100427.03;5036728;28;20069;-62
2022/07/07 02:43:31;;;;;;;30.80;6.03;;;;;;;27.66;62.61;100420.25;5036559;28;20108;-60
2022/07/07 02:46:03;;;;;;;15.13;4.33;;;;;;;27.71;63.20;100415.34;5037177;28;20079;-60
2022/07/07 02:48:34;;;;;;;47.20;6.83;;;;;;;27.92;63.39;100426.91;5036528;28;20052;-61
2022/07/07 02:51:04;;;;;;;17.40;4.43;;;;;;;27.88;61.92;100421.94;5036696;28;20310;-61
2022/07/07 02:53:36;;;;;;;17.63;4.30;;;;;;;27.88;62.22;100419.25;5036703;28;20063;-60
2022/07/07 02:56:08;;;;;;;11.73;4.27;;;;;;;27.90;61.79;100418.13;5035488;28;20053;-60
2022/07/07 02:58:39;;;;;;;17.73;4.37;;;;;;;27.87;61.98;100415.72;5036046;28;20520;-58
2022/07/07 03:01:10;;;;;;;15.60;4.60;;;;;;;27.93;62.11;100414.34;5036204;28;20057;-60
2022/07/07 03:03:41;;;;;;;14.13;4.03;;;;;;;27.95;61.37;100415.91;5036258;28;20254;-61
2022/07/07 03:06:11;;;;;;;13.97;4.30;;;;;;;27.98;61.22;100419.31;5035841;28;20041;-59
2022/07/07 03:08:42;;;;;;;17.67;4.50;;;;;;;27.96;61.38;100412.25;5035810;28;20366;-61
2022/07/07 03:11:14;;;;;;;17.93;4.60;;;;;;;27.92;61.06;100413.50;5036066;28;20053;-60
2022/07/07 03:13:45;;;;;;;21.53;4.53;;;;;;;27.88;60.99;100404.00;5035514;28;20053;-62
2022/07/07 03:16:16;;;;;;;12.17;4.40;;;;;;;27.80;61.58;100411.81;5036290;28;20218;-61
2022/07/07 03:18:46;;;;;;;148.53;13.67;;;;;;;27.90;61.82;100402.03;5036040;28;20367;-60
2022/07/07 03:21:17;;;;;;;27.87;5.30;;;;;;;27.91;60.91;100398.38;5036357;28;20049;-60
2022/07/07 03:23:48;;;;;;;30.10;5.47;;;;;;;27.94;60.99;100398.09;5034734;28;20120;-60
2022/07/07 03:26:20;;;;;;;23.37;4.60;;;;;;;27.96;60.92;100396.13;5034776;28;20385;-60
2022/07/07 03:28:50;;;;;;;13.57;4.37;;;;;;;28.02;60.91;100391.22;5036027;28;20379;-61
2022/07/07 03:31:21;;;;;;;40.47;6.00;;;;;;;27.98;60.26;100393.28;5035869;28;20052;-60
2022/07/07 03:33:51;;;;;;;15.23;4.57;;;;;;;28.01;60.95;100400.22;5036068;28;20254;-61
2022/07/07 03:36:22;;;;;;;170.63;13.93;;;;;;;27.98;60.98;100392.44;5034934;28;20060;-60
2022/07/07 03:38:53;;;;;;;18.53;4.90;;;;;;;28.02;60.98;100393.91;5035650;28;20107;-61
2022/07/07 03:41:25;;;;;;;98.27;10.20;;;;;;;28.14;62.04;100387.44;5035375;28;20088;-62
2022/07/07 03:43:56;;;;;;;13.17;4.53;;;;;;;28.12;60.64;100389.41;5035994;28;20050;-61
2022/07/07 03:46:27;;;;;;;13.97;4.30;;;;;;;28.05;60.90;100382.88;5035108;28;20251;-62
2022/07/07 03:48:58;;;;;;;10.97;3.50;;;;;;;28.08;60.74;100387.97;5036072;28;20060;-61
2022/07/07 03:51:28;;;;;;;14.53;4.67;;;;;;;28.05;60.12;100388.25;5035586;28;20042;-61
2022/07/07 03:53:59;;;;;;;14.07;4.57;;;;;;;28.02;61.17;100389.38;5035104;28;20120;-61
2022/07/07 03:56:31;;;;;;;19.10;4.73;;;;;;;27.95;60.70;100378.31;5035465;28;20071;-60
2022/07/07 03:59:02;;;;;;;15.43;4.37;;;;;;;28.00;60.45;100387.81;5035081;28;20207;-60
2022/07/07 04:01:32;;;;;;;11.33;4.17;;;;;;;28.07;61.78;100383.59;5034602;28;20152;-61
2022/07/07 04:04:04;;;;;;;13.77;4.97;;;;;;;28.14;60.70;100382.06;5035327;28;20049;-62
2022/07/07 04:06:36;;;;;;;26.17;4.93;;;;;;;28.29;61.22;100377.19;5035755;28;20084;-62
2022/07/07 04:09:07;;;;;;;20.73;5.27;;;;;;;28.27;59.27;100371.94;5034532;28;20063;-61
2022/07/07 04:11:39;;;;;;;28.43;5.33;;;;;;;28.25;60.36;100368.53;5035424;28;20053;-61
2022/07/07 04:14:09;;;;;;;13.13;5.13;;;;;;;28.19;60.27;100371.78;5035075;28;20104;-62
2022/07/07 04:16:40;;;;;;;15.27;5.03;;;;;;;28.24;60.57;100377.59;5034785;28;20041;-61
2022/07/07 04:19:11;;;;;;;14.73;4.87;;;;;;;28.31;59.68;100368.00;5034939;28;20053;-61
2022/07/07 04:21:41;;;;;;;15.03;5.00;;;;;;;28.13;59.30;100364.25;5035450;28;20053;-62
2022/07/07 04:24:12;;;;;;;18.00;5.30;;;;;;;28.08;59.84;100361.09;5034994;28;20045;-62
2022/07/07 04:26:44;;;;;;;9.33;5.23;;;;;;;28.11;59.89;100360.88;5034066;28;20180;-62
2022/07/07 04:29:15;;;;;;;14.27;5.47;;;;;;;28.07;59.77;100364.78;5034694;28;20368;-61
2022/07/07 04:31:45;;;;;;;22.23;5.43;;;;;;;28.06;60.00;100358.56;5033827;28;20221;-61
2022/07/07 04:34:16;;;;;;;21.77;5.27;;;;;;;28.11;60.19;100355.50;5034826;28;20341;-61
2022/07/07 04:36:47;;;;;;;18.63;5.33;;;;;;;28.19;60.41;100352.97;5033485;28;20053;-62
2022/07/07 04:39:17;;;;;;;16.10;5.10;;;;;;;28.26;59.88;100364.88;5031228;28;20326;-61
2022/07/07 04:41:50;;;;;;;15.43;5.07;;;;;;;28.11;58.85;100339.38;5035491;28;20057;-63
2022/07/07 04:44:20;;;;;;;9.17;5.37;;;;;;;28.09;59.03;100354.78;5035939;28;20061;-61
2022/07/07 04:46:51;;;;;;;13.17;5.80;;;;;;;28.05;59.37;100358.69;5035788;28;20053;-61
2022/07/07 04:49:22;;;;;;;16.63;6.80;;;;;;;27.95;59.67;100346.06;5039047;28;20103;-61
2022/07/07 04:51:52;;;;;;;12.83;6.30;;;;;;;27.97;60.31;100354.00;5038672;28;20056;-61
2022/07/07 04:54:23;;;;;;;24.03;6.40;;;;;;;27.96;59.95;100342.41;5038599;28;20057;-63
2022/07/07 04:56:55;;;;;;;18.17;6.07;;;;;;;27.96;59.79;100342.41;5038880;28;20262;-61
2022/07/07 04:59:25;;;;;;;54.23;8.83;;;;;;;27.93;60.66;100341.81;5039152;28;20053;-62
2022/07/07 05:01:56;;;;;;;15.03;6.23;;;;;;;27.90;60.40;100342.94;5039175;28;20045;-62
2022/07/07 05:04:27;;;;;;;16.23;6.70;;;;;;;27.96;59.82;100353.16;5039235;28;20212;-61
2022/07/07 05:06:57;;;;;;;23.50;6.73;;;;;;;27.98;60.85;100349.47;5038805;28;20053;-61
2022/07/07 05:09:28;;;;;;;20.63;6.80;;;;;;;28.07;60.80;100348.69;5038375;28;20119;-62
2022/07/07 05:12:00;;;;;;;25.13;6.90;;;;;;;27.99;59.64;100348.50;5038705;28;20378;-62
2022/07/07 05:14:31;;;;;;;16.70;6.40;;;;;;;27.99;61.08;100335.09;5038150;28;20061;-62
2022/07/07 05:17:02;;;;;;;23.40;6.70;;;;;;;27.93;61.08;100336.44;5038656;28;20068;-61
2022/07/07 05:19:32;;;;;;;17.23;6.83;;;;;;;27.60;60.44;100346.44;5038777;28;20080;-61
2022/07/07 05:22:03;;;;;;;11.97;6.67;;;;;;;27.18;61.31;100341.09;5038546;28;20095;-60
2022/07/07 05:24:34;;;;;;;12.20;6.90;;;;;;;26.89;62.18;100346.22;5037390;28;20309;-61
2022/07/07 05:27:06;;;;;;;20.37;7.80;;;;;;;26.81;63.53;100337.94;5038318;28;20053;-62
2022/07/07 05:29:37;;;;;;;22.43;8.57;;;;;;;26.94;63.53;100338.63;5038226;28;20387;-62
2022/07/07 05:32:08;;;;;;;17.43;7.67;;;;;;;27.18;63.15;100326.81;5038208;28;20053;-61
2022/07/07 05:34:39;;;;;;;18.57;8.53;;;;;;;27.50;62.47;100335.66;5038424;28;20116;-61
2022/07/07 05:37:10;;;;;;;15.47;8.80;;;;;;;27.75;62.66;100330.84;5037538;28;20081;-62
2022/07/07 05:39:40;;;;;;;22.00;7.63;;;;;;;27.94;62.10;100317.53;5037805;28;20049;-61
2022/07/07 05:42:12;;;;;;;16.37;7.27;;;;;;;28.05;60.92;100324.63;5038188;28;20072;-60
2022/07/07 05:44:43;;;;;;;13.77;7.17;;;;;;;28.15;61.00;100327.34;5037086;28;20053;-61
2022/07/07 05:47:15;;;;;;;22.03;7.80;;;;;;;28.21;60.60;100318.75;5037510;28;20057;-61
2022/07/07 05:49:46;;;;;;;19.93;8.13;;;;;;;28.31;60.43;100325.00;5037247;28;20049;-62
2022/07/07 05:52:16;;;;;;;20.60;8.07;;;;;;;28.29;59.60;100321.59;5038229;28;20041;-61
2022/07/07 05:54:47;;;;;;;17.30;9.70;;;;;;;28.23;59.46;100319.47;5037667;28;20049;-62
2022/07/07 05:57:19;;;;;;;22.17;10.93;;;;;;;28.15;60.31;100324.66;5037054;28;20324;-61
2022/07/07 05:59:50;;;;;;;20.07;8.10;;;;;;;28.22;59.76;100324.97;5036870;28;20053;-61
2022/07/07 06:02:20;;;;;;;38.90;9.90;;;;;;;28.13;60.29;100318.56;5036641;28;20372;-62
2022/07/07 06:04:51;;;;;;;11.63;7.57;;;;;;;28.05;60.25;100316.56;5037441;28;20053;-62
2022/07/07 06:07:25;;;;;;;22.13;10.30;;;;;;;28.20;61.78;100325.09;5037037;28;20122;-61
2022/07/07 06:09:55;;;;;;;19.17;9.07;;;;;;;28.37;60.67;100324.44;5037638;28;20096;-61
2022/07/07 06:12:27;;;;;;;25.50;9.77;;;;;;;28.36;60.04;100321.91;5037741;28;20053;-62
2022/07/07 06:14:58;;;;;;;15.23;6.50;;;;;;;28.32;59.60;100325.84;5037688;28;20127;-61
2022/07/07 06:17:28;;;;;;;21.80;8.27;;;;;;;28.24;60.01;100323.84;5037402;28;20333;-62
2022/07/07 06:20:19;;;;;;;16.97;8.23;;;;;;;28.20;60.11;100326.94;5036827;28;20054;-61
2022/07/07 06:22:50;;;;;;;16.93;8.00;;;;;;;28.12;59.62;100324.94;5037255;28;20674;-63
2022/07/07 06:25:21;;;;;;;16.17;7.60;;;;;;;28.07;59.41;100321.81;5037308;28;20139;-62
2022/07/07 06:27:53;;;;;;;21.37;7.80;;;;;;;27.99;59.94;100318.97;5037223;28;20053;-62
2022/07/07 06:30:24;;;;;;;11.47;7.13;;;;;;;28.00;59.96;100320.66;5037117;28;20215;-61
2022/07/07 06:32:54;;;;;;;9.80;6.77;;;;;;;28.02;60.91;100324.06;5037179;28;20046;-63
2022/07/07 06:35:26;;;;;;;25.83;8.27;;;;;;;27.99;60.56;100308.22;5036882;28;20053;-62
2022/07/07 06:37:57;;;;;;;24.73;8.10;;;;;;;28.06;60.37;100320.13;5037398;28;20061;-62
2022/07/07 06:40:28;;;;;;;24.97;7.97;;;;;;;27.95;60.03;100329.97;5036964;28;20065;-64
2022/07/07 06:43:00;;;;;;;16.10;7.37;;;;;;;27.83;60.60;100309.59;5037266;28;20045;-62
2022/07/07 06:45:30;;;;;;;29.00;8.27;;;;;;;27.88;60.42;100311.84;5036430;28;20053;-61
2022/07/07 06:48:01;;;;;;;24.60;9.33;;;;;;;27.81;60.62;100311.53;5036976;28;20053;-63
2022/07/07 06:50:31;;;;;;;13.10;6.50;;;;;;;27.80;60.27;100323.22;5037122;28;20072;-62
2022/07/07 06:53:02;;;;;;;15.60;6.83;;;;;;;27.77;60.51;100320.81;5036925;28;20061;-63
2022/07/07 06:55:32;;;;;;;13.03;6.30;;;;;;;27.69;60.00;100309.91;5037100;28;20056;-63
2022/07/07 06:58:05;;;;;;;11.97;6.23;;;;;;;27.67;60.04;100319.94;5037038;28;20069;-62
2022/07/07 07:00:36;;;;;;;13.17;7.10;;;;;;;27.60;60.50;100308.03;5036691;28;20059;-62
2022/07/07 07:03:06;;;;;;;19.13;6.20;;;;;;;27.65;60.71;100321.88;5036991;28;20107;-62
2022/07/07 07:05:37;;;;;;;12.47;7.53;;;;;;;27.62;60.08;100311.44;5036895;28;20057;-64
2022/07/07 07:08:08;;;;;;;11.67;6.83;;;;;;;27.29;59.78;100283.84;5036287;28;20348;-62
2022/07/07 07:10:38;;;;;;;11.40;6.43;;;;;;;27.42;60.23;100305.94;5036459;28;20119;-62
2022/07/07 07:13:11;;;;;;;10.23;6.10;;;;;;;27.40;60.06;100307.91;5036201;28;20053;-62
2022/07/07 07:15:41;;;;;;;14.90;6.27;;;;;;;27.32;59.98;100305.91;5036695;28;20068;-62
2022/07/07 07:18:12;;;;;;;14.13;6.93;;;;;;;27.22;59.96;100294.25;5036166;28;20071;-62
2022/07/07 07:20:42;;;;;;;21.27;6.77;;;;;;;27.24;60.27;100288.78;5036303;28;20045;-62
2022/07/07 07:23:13;;;;;;;13.80;5.97;;;;;;;27.32;60.74;100299.69;5036020;28;20154;-62
2022/07/07 07:25:43;;;;;;;18.77;7.20;;;;;;;27.36;60.71;100293.09;5036743;28;20049;-62
2022/07/07 07:28:16;;;;;;;17.83;7.10;;;;;;;27.33;59.80;100296.00;5036365;28;20116;-62
2022/07/07 07:30:46;;;;;;;20.93;6.50;;;;;;;27.15;59.87;100273.44;5036128;28;20682;-63
2022/07/07 07:33:17;;;;;;;19.47;7.00;;;;;;;27.14;59.52;100295.88;5036062;28;20277;-62
2022/07/07 07:35:47;;;;;;;29.83;8.23;;;;;;;26.94;60.11;100287.69;5035828;28;20344;-62
2022/07/07 07:38:18;;;;;;;16.33;6.77;;;;;;;26.97;60.24;100289.25;5035996;28;20049;-62
2022/07/07 07:40:54;;;;;;;14.77;7.00;;;;;;;26.90;60.46;100291.59;5035716;28;20068;-62
2022/07/07 07:43:27;;;;;;;16.50;7.73;;;;;;;26.90;60.68;100288.91;5035962;28;20057;-62
2022/07/07 07:45:58;;;;;;;16.87;7.10;;;;;;;26.77;60.69;100269.50;5036404;28;20104;-63
2022/07/07 07:48:29;;;;;;;13.90;7.13;;;;;;;26.86;60.42;100292.84;5036158;28;20252;-63
2022/07/07 07:51:00;;;;;;;17.50;7.47;;;;;;;26.78;60.60;100293.47;5036292;28;20198;-63
2022/07/07 07:53:30;;;;;;;22.27;7.40;;;;;;;26.65;61.00;100274.88;5036047;28;20057;-62
2022/07/07 07:56:01;;;;;;;19.10;8.17;;;;;;;26.65;61.04;100290.97;5035780;28;20057;-61
2022/07/07 07:58:33;;;;;;;19.53;7.90;;;;;;;26.55;60.84;100283.84;5035117;28;20045;-62
2022/07/07 08:01:05;;;;;;;23.20;9.23;;;;;;;26.55;60.86;100295.41;5035605;28;20239;-62
2022/07/07 08:03:36;;;;;;;16.17;8.13;;;;;;;26.52;61.29;100301.00;5052169;28;20083;-62
2022/07/07 08:06:06;;;;;;;20.57;7.73;;;;;;;26.51;61.22;100309.13;5055565;28;20830;-62
2022/07/07 08:08:37;;;;;;;20.80;8.40;;;;;;;26.41;61.14;100309.03;5054454;28;20122;-61
2022/07/07 08:11:08;;;;;;;25.13;9.03;;;;;;;26.37;61.42;100323.69;5055363;28;20071;-62
2022/07/07 08:13:40;;;;;;;26.77;8.87;;;;;;;26.33;61.34;100316.88;5054648;28;20052;-61
2022/07/07 08:16:10;;;;;;;22.70;8.17;;;;;;;26.18;61.04;100314.44;5055099;28;20053;-62
2022/07/07 08:18:41;;;;;;;19.47;9.43;;;;;;;26.03;61.69;100316.56;5055434;28;20131;-61
2022/07/07 08:21:13;;;;;;;22.57;8.90;;;;;;;25.82;61.91;100292.31;5055169;28;20080;-61
2022/07/07 08:23:44;;;;;;;20.50;8.47;;;;;;;25.92;61.94;100313.03;5055110;28;20059;-61
2022/07/07 08:26:14;;;;;;;17.10;8.70;;;;;;;25.75;62.00;100311.66;5055294;28;20044;-62
2022/07/07 08:28:48;;;;;;;16.70;7.90;;;;;;;25.67;61.87;100309.59;5055046;28;20239;-64
2022/07/07 08:31:18;;;;;;;20.23;9.03;;;;;;;25.72;62.39;100315.44;5055337;28;20116;-62
2022/07/07 08:33:49;;;;;;;25.50;9.90;;;;;;;25.67;62.30;100314.09;5054973;28;20078;-63
2022/07/07 08:36:20;;;;;;;25.63;8.37;;;;;;;25.61;62.58;100312.78;5055128;28;20048;-61
2022/07/07 08:38:51;;;;;;;16.57;8.40;;;;;;;25.61;62.44;100310.94;5054981;28;20055;-61
2022/07/07 08:41:21;;;;;;;19.07;8.07;;;;;;;25.54;62.85;100300.84;5054894;28;20049;-62
2022/07/07 08:43:55;;;;;;;21.23;8.53;;;;;;;25.48;63.05;100303.97;5055178;28;20359;-62
2022/07/07 08:46:26;;;;;;;19.77;8.77;;;;;;;25.39;63.06;100301.06;5055136;28;20071;-62
2022/07/07 08:48:56;;;;;;;14.33;8.10;;;;;;;25.37;63.12;100307.50;5055559;28;20087;-62
2022/07/07 08:51:27;;;;;;;12.57;7.73;;;;;;;25.20;63.33;100274.03;5055036;28;20052;-62
2022/07/07 08:54:00;;;;;;;18.13;7.93;;;;;;;25.32;63.51;100302.50;5055347;28;20080;-61
2022/07/07 08:56:33;;;;;;;25.47;9.23;;;;;;;25.26;63.80;100294.97;5055023;28;20053;-62
2022/07/07 08:59:05;;;;;;;27.23;12.37;;;;;;;25.16;63.75;100299.25;5054855;28;20057;-62
2022/07/07 09:01:37;;;;;;;18.33;11.10;;;;;;;25.11;64.25;100306.78;5055173;28;20733;-62
2022/07/07 09:04:08;;;;;;;30.47;18.17;;;;;;;25.00;64.09;100309.44;5054731;28;20110;-62
2022/07/07 09:06:38;;;;;;;39.00;17.80;;;;;;;24.91;64.31;100311.84;5055041;28;20102;-62
2022/07/07 09:09:09;;;;;;;30.73;17.63;;;;;;;24.77;64.71;100314.69;5054881;28;20076;-61
2022/07/07 09:11:40;;;;;;;35.43;16.70;;;;;;;24.74;65.05;100314.94;5054768;28;20061;-62
2022/07/07 09:14:16;;;;;;;22.80;9.47;;;;;;;24.75;64.65;100305.94;5054779;28;20053;-62
2022/07/07 09:16:47;;;;;;;22.20;9.67;;;;;;;24.75;64.89;100306.78;5054450;28;20061;-61
2022/07/07 09:19:20;;;;;;;50.67;11.03;;;;;;;24.66;64.54;100303.94;5054484;28;20098;-62
2022/07/07 09:21:51;;;;;;;17.93;8.93;;;;;;;24.67;65.26;100324.38;5054434;28;20065;-62
2022/07/07 09:24:22;;;;;;;30.80;8.63;;;;;;;24.67;64.83;100324.38;5054873;28;20140;-62
2022/07/07 09:26:55;;;;;;;32.23;10.07;;;;;;;24.57;65.16;100323.34;5054487;28;20273;-62
2022/07/07 09:29:28;;;;;;;18.20;9.20;;;;;;;24.48;65.18;100319.53;5055056;28;20209;-61
2022/07/07 09:32:00;;;;;;;24.30;8.67;;;;;;;24.35;65.65;100314.22;5055235;28;20057;-62
2022/07/07 09:34:33;;;;;;;21.53;8.73;;;;;;;24.30;65.80;100321.69;5057804;28;20120;-61
2022/07/07 09:39:54;;;;;;;27.83;11.00;;;;;;;24.16;66.48;100324.50;5057985;28;20067;-61
2022/07/07 09:42:41;;;;;;;20.67;9.63;;;;;;;23.88;66.33;100306.00;5057641;28;20198;-64
2022/07/07 09:45:14;;;;;;;25.53;12.87;;;;;;;23.74;66.96;100308.81;5058181;28;20344;-62
2022/07/07 09:47:45;;;;;;;25.80;11.53;;;;;;;23.68;67.42;100331.38;5057954;28;20323;-62
2022/07/07 09:50:17;;;;;;;21.47;10.23;;;;;;;23.55;67.95;100325.19;5058194;28;20076;-63
2022/07/07 09:52:49;;;;;;;24.43;9.80;;;;;;;23.49;68.10;100328.31;5057891;28;20049;-62
2022/07/07 09:55:20;;;;;;;26.63;14.60;;;;;;;23.33;68.57;100336.50;5058264;28;20196;-63
2022/07/07 09:57:50;;;;;;;29.60;13.83;;;;;;;23.17;68.79;100326.03;5057892;28;20063;-62
2022/07/07 10:00:23;;;;;;;26.77;12.03;;;;;;;23.02;69.41;100335.91;5057551;28;20068;-62
2022/07/07 10:02:55;;;;;;;15.70;10.70;;;;;;;22.73;69.95;100311.19;5056911;28;20056;-62
2022/07/07 10:05:26;;;;;;;14.97;9.53;;;;;;;22.63;70.52;100336.72;5056605;28;20079;-61
2022/07/07 10:07:59;;;;;;;22.23;10.37;;;;;;;22.40;71.01;100317.75;5057535;28;20068;-61
2022/07/07 10:10:31;;;;;;;22.17;10.80;;;;;;;22.34;71.59;100335.94;5058090;28;20060;-62
2022/07/07 10:13:03;;;;;;;18.97;10.60;;;;;;;22.13;72.18;100332.81;5057672;28;20116;-61
2022/07/07 10:15:37;;;;;;;30.13;10.53;;;;;;;21.95;73.10;100341.00;5057835;28;20053;-62
2022/07/07 10:18:08;;;;;;;28.90;11.17;;;;;;;21.85;73.45;100339.88;5057347;28;20116;-63
2022/07/07 10:20:39;;;;;;;21.20;12.03;;;;;;;21.69;74.10;100344.41;5057553;28;20060;-61
2022/07/07 10:23:10;;;;;;;32.93;15.23;;;;;;;21.52;74.65;100335.69;5057301;28;20065;-62
2022/07/07 10:25:41;;;;;;;21.63;10.63;;;;;;;21.38;74.94;100340.94;5057602;28;20090;-61
2022/07/07 10:28:11;;;;;;;26.50;11.20;;;;;;;21.32;75.71;100346.63;5057281;28;20063;-62
2022/07/07 10:30:43;;;;;;;27.50;11.13;;;;;;;21.21;76.07;100338.41;5057362;28;20120;-62
2022/07/07 10:33:16;;;;;;;31.60;14.53;;;;;;;21.07;76.48;100342.75;5057494;28;20423;-62
2022/07/07 10:35:47;;;;;;;41.20;20.93;;;;;;;20.97;77.12;100346.91;5056997;28;20452;-62
2022/07/07 10:38:20;;;;;;;47.80;15.00;;;;;;;20.91;77.66;100352.56;5056529;28;20381;-62
2022/07/07 10:40:54;;;;;;;32.27;13.60;;;;;;;20.77;77.91;100349.88;5056895;28;20294;-61
2022/07/07 10:43:30;;;;;;;35.13;13.40;;;;;;;20.75;78.28;100351.75;5057079;28;20275;-62
2022/07/07 10:46:03;;;;;;;38.17;19.37;;;;;;;20.71;78.33;100363.47;5056060;28;20288;-61
2022/07/07 10:48:45;;;;;;;43.47;16.20;;;;;;;20.51;78.66;100351.28;5056858;28;20284;-62
2022/07/07 10:51:22;;;;;;;33.87;12.93;;;;;;;20.45;78.97;100356.00;5056070;28;20301;-61
2022/07/07 10:54:02;;;;;;;42.63;12.63;;;;;;;20.41;79.50;100361.56;5056547;28;20505;-62
2022/07/07 10:57:05;;;;;;;34.07;12.60;;;;;;;20.36;79.46;100366.28;5056729;28;20307;-61
2022/07/07 11:00:08;;;;;;;37.00;12.20;;;;;;;20.28;79.78;100368.50;5056285;28;20365;-61
2022/07/07 11:02:43;;;;;;;30.53;15.07;;;;;;;20.14;79.35;100354.19;5055451;28;20303;-62
2022/07/07 11:05:32;;;;;;;38.27;13.43;;;;;;;19.92;79.96;100335.06;5056470;28;20559;-62
2022/07/07 11:08:17;;;;;;;25.47;11.40;;;;;;;19.87;80.28;100343.28;5056569;28;20343;-62
2022/07/07 11:10:56;;;;;;;26.70;13.07;;;;;;;19.91;80.54;100354.59;5056754;28;20798;-62
2022/07/07 11:13:36;;;;;;;26.73;11.63;;;;;;;19.81;80.48;100354.22;5056745;28;20059;-62
2022/07/07 11:16:18;;;;;;;27.70;12.67;;;;;;;19.78;80.84;100357.88;5056804;28;20299;-62
2022/07/07 11:19:00;;;;;;;38.10;14.20;;;;;;;19.68;81.34;100364.63;5056427;28;20341;-62
2022/07/07 11:21:41;;;;;;;27.87;11.13;;;;;;;19.60;81.59;100366.78;5056246;28;20275;-62
2022/07/07 11:24:23;;;;;;;32.80;11.53;;;;;;;19.44;81.79;100357.91;5056546;28;20322;-62
2022/07/07 11:26:59;;;;;;;31.20;11.87;;;;;;;19.47;81.94;100371.00;5056034;28;20322;-62
2022/07/07 11:29:30;;;;;;;25.23;11.20;;;;;;;19.38;82.21;100370.53;5056566;28;20324;-61
2022/07/07 11:32:06;;;;;;;30.33;11.93;;;;;;;19.30;82.40;100380.69;5056223;28;20325;-61
2022/07/07 11:34:46;;;;;;;24.33;13.57;;;;;;;19.26;82.28;100373.81;5056430;28;20318;-60
2022/07/07 11:37:21;;;;;;;21.57;11.33;;;;;;;19.18;82.25;100373.34;5056022;28;20370;-61
2022/07/07 11:39:52;;;;;;;20.30;11.63;;;;;;;19.08;82.36;100369.44;5055687;28;20283;-60
2022/07/07 11:42:23;;;;;;;28.03;14.57;;;;;;;18.98;82.38;100368.19;5055607;28;20307;-60